Tyler Hill, Pennsylvania
Current Conditions -  °F | °C
As of 4:55 AM on Monday 22 Dec 2014 (Local Time) from KMSV Reporting Station
Overcast Overcast  
Wind Chill: 21°   Ceiling: 500
Heat Index: 28°   Visibility: 10mi
Dew Point: 27°   Wind: 7mph
Humidity: 93%   Direction: 90°E
Pressure: 30.27"   Gusts: NA
Location:  41.69°N, 75.11°W
Report Text: KMSV 220955Z AUTO 09006KT 10SM OVC005 M02/M03 A3027 RMK AO1
Loading
Personal Weather Stations






























Interactive Weather Map New forecast layout! Learn more

10-Day Weather Forecast

Advertisements
Track Severe Weather on mobile